Time;durP1;ratioP1;P1;durP2;ratioP2;P2;SDS_P1;SDS_P2;PMS_P1;PMS_P2;Temp;Humidity;BMP_temperature;BMP_pressure;BME280_temperature;BME280_humidity;BME280_pressure;Samples;Min_cycle;Max_cycle;Signal;HPM_P1;HPM_P2
2021/05/23 00:00:25;;;;;;;7.55;4.75;;;;;;;12.23;69.69;99057.75;4993096;28;20058;-83
2021/05/23 00:02:58;;;;;;;8.43;4.85;;;;;;;12.22;69.55;99047.31;4992508;28;20058;-84
2021/05/23 00:05:27;;;;;;;7.40;4.50;;;;;;;12.21;69.50;99057.06;4991702;28;20058;-84
2021/05/23 00:08:06;;;;;;;9.15;4.75;;;;;;;12.17;69.53;99052.09;5011965;28;20042;-84
2021/05/23 00:10:43;;;;;;;7.05;5.13;;;;;;;12.18;69.72;99053.81;5010992;28;20050;-85
2021/05/23 00:13:13;;;;;;;6.15;4.38;;;;;;;12.15;69.64;99057.50;5013073;28;20057;-84
2021/05/23 00:15:48;;;;;;;8.25;4.78;;;;;;;12.14;69.62;99055.00;5012650;28;20062;-84
2021/05/23 00:18:15;;;;;;;8.55;5.35;;;;;;;12.14;69.72;99049.72;5013225;28;20153;-84
2021/05/23 00:20:42;;;;;;;6.75;5.30;;;;;;;12.11;69.81;99051.63;5003607;28;20105;-84
2021/05/23 00:23:10;;;;;;;7.78;5.20;;;;;;;12.11;69.76;99061.31;4992015;28;20080;-84
2021/05/23 00:25:38;;;;;;;8.20;5.35;;;;;;;12.07;69.83;99050.16;4992949;28;20471;-84
2021/05/23 00:28:06;;;;;;;8.35;5.22;;;;;;;12.04;69.80;99053.00;4993058;28;20050;-84
2021/05/23 00:30:33;;;;;;;10.38;4.53;;;;;;;12.03;69.72;99066.31;4993160;28;20054;-84
2021/05/23 00:32:59;;;;;;;9.05;5.18;;;;;;;12.01;69.91;99062.94;4994167;28;20050;-84
2021/05/23 00:35:26;;;;;;;12.07;5.63;;;;;;;11.98;69.97;99069.28;5005036;28;20053;-84
2021/05/23 00:37:53;;;;;;;8.38;5.60;;;;;;;11.95;69.96;99067.72;5012857;28;20056;-84
2021/05/23 00:40:19;;;;;;;8.88;5.20;;;;;;;11.93;70.02;99066.16;5012723;28;20399;-84
2021/05/23 00:42:46;;;;;;;9.02;6.47;;;;;;;11.91;70.05;99070.69;5011215;28;20054;-85
2021/05/23 00:45:16;;;;;;;9.57;5.88;;;;;;;11.86;70.42;99069.22;5012102;28;20416;-83
2021/05/23 00:47:44;;;;;;;9.93;5.65;;;;;;;11.86;70.38;99066.59;5012509;28;20243;-84
2021/05/23 00:50:17;;;;;;;9.35;4.95;;;;;;;11.85;70.44;99069.38;5011475;28;20054;-85
2021/05/23 00:52:43;;;;;;;8.05;5.63;;;;;;;11.85;70.63;99070.19;5012981;28;20057;-84
2021/05/23 00:55:11;;;;;;;10.02;5.40;;;;;;;11.85;70.57;99079.91;5011256;28;20061;-84
2021/05/23 00:57:37;;;;;;;10.07;6.00;;;;;;;11.85;70.72;99079.91;5012575;28;20057;-84
2021/05/23 01:00:06;;;;;;;10.90;5.80;;;;;;;11.84;70.81;99084.34;5012361;28;20050;-84
2021/05/23 01:02:46;;;;;;;13.10;6.05;;;;;;;11.86;70.78;99082.41;5004906;28;20057;-84
2021/05/23 01:05:17;;;;;;;10.50;5.95;;;;;;;11.85;70.71;99082.56;4993043;28;20116;-84
2021/05/23 01:07:45;;;;;;;12.52;6.60;;;;;;;11.84;70.69;99081.69;4992536;28;20042;-84
2021/05/23 01:10:15;;;;;;;13.25;5.95;;;;;;;11.85;70.67;99090.47;4992571;28;20062;-84
2021/05/23 01:12:59;;;;;;;12.60;6.03;;;;;;;11.85;70.66;99086.00;4992397;28;20058;-85
2021/05/23 01:15:39;;;;;;;10.48;5.90;;;;;;;11.83;70.85;99097.63;4992878;28;20487;-84
2021/05/23 01:18:14;;;;;;;12.02;6.38;;;;;;;11.84;70.71;99100.16;5010106;28;20057;-85
2021/05/23 01:20:48;;;;;;;8.93;5.50;;;;;;;11.86;70.80;99097.41;5000729;28;20535;-85
2021/05/23 01:23:23;;;;;;;9.77;5.82;;;;;;;11.84;70.65;99094.88;4995108;28;20508;-85
2021/05/23 01:25:57;;;;;;;12.05;6.32;;;;;;;11.86;70.66;99100.06;4996227;28;20058;-84
2021/05/23 01:28:23;;;;;;;;;;;;;;;11.88;70.37;99100.75;4996267;28;20046;-83
2021/05/23 01:30:51;;;;;;;8.93;5.18;;;;;;;11.91;70.50;99099.69;5002242;28;19921;-84
2021/05/23 01:33:20;;;;;;;8.48;5.30;;;;;;;11.89;70.53;99102.44;5015867;28;20061;-85
2021/05/23 01:35:53;;;;;;;7.82;5.40;;;;;;;11.87;70.70;99099.09;5015162;28;20053;-84
2021/05/23 01:38:21;;;;;;;9.98;6.45;;;;;;;11.85;70.88;99099.19;5015225;28;20128;-84
2021/05/23 01:40:50;;;;;;;10.23;6.50;;;;;;;11.85;71.05;99107.09;5015495;28;20419;-83
2021/05/23 01:43:18;;;;;;;12.95;6.72;;;;;;;11.85;71.09;99099.19;5013314;28;20053;-83
2021/05/23 01:45:46;;;;;;;11.32;6.57;;;;;;;11.86;71.09;99097.41;5015092;28;20057;-84
2021/05/23 01:48:12;;;;;;;9.57;6.30;;;;;;;11.88;70.94;99103.41;5013878;28;20050;-84
2021/05/23 01:50:40;;;;;;;10.57;6.68;;;;;;;11.86;70.94;99105.31;5014789;28;20057;-84
2021/05/23 01:53:07;;;;;;;14.05;6.88;;;;;;;11.86;71.09;99100.06;5013496;28;20061;-83
2021/05/23 01:55:35;;;;;;;10.75;7.15;;;;;;;11.86;71.07;99095.59;5012850;28;20065;-83
2021/05/23 01:58:02;;;;;;;13.20;6.22;;;;;;;11.86;70.92;99092.97;5013789;28;20042;-84
2021/05/23 02:00:37;;;;;;;10.45;6.43;;;;;;;11.84;71.14;99094.03;5015093;28;20074;-83
2021/05/23 02:03:09;;;;;;;11.75;6.57;;;;;;;11.84;70.93;99086.97;5015013;28;20050;-85
2021/05/23 02:05:51;;;;;;;12.10;6.75;;;;;;;11.82;70.89;99088.88;5013760;28;20054;-84
2021/05/23 02:08:19;;;;;;;13.10;6.78;;;;;;;11.85;71.29;99098.38;5015002;28;20045;-84
2021/05/23 02:10:47;;;;;;;9.48;6.55;;;;;;;11.83;70.96;99093.22;5000682;28;20046;-83
2021/05/23 02:13:15;;;;;;;9.00;6.57;;;;;;;11.83;70.95;99089.72;4995244;28;20137;-84
2021/05/23 02:15:42;;;;;;;12.98;7.18;;;;;;;11.82;70.95;99099.41;4994955;28;20054;-83
2021/05/23 02:18:10;;;;;;;14.07;6.90;;;;;;;11.81;70.87;99095.09;4994879;28;20046;-83
2021/05/23 02:20:38;;;;;;;15.98;7.68;;;;;;;11.81;71.04;99095.09;4993960;28;20054;-84
2021/05/23 02:23:11;;;;;;;9.45;6.75;;;;;;;11.81;71.01;99089.81;4994693;28;20061;-84
2021/05/23 02:25:37;;;;;;;11.43;6.85;;;;;;;11.80;71.01;99096.06;5012814;28;20400;-84
2021/05/23 02:28:07;;;;;;;8.43;6.68;;;;;;;11.80;71.14;99105.75;5014026;28;20054;-84
2021/05/23 02:30:56;;;;;;;10.85;6.78;;;;;;;11.79;70.94;99099.66;5012494;28;20092;-84
2021/05/23 02:33:26;;;;;;;11.00;6.53;;;;;;;11.80;70.84;99103.97;5014194;28;20141;-84
2021/05/23 02:35:55;;;;;;;14.55;7.03;;;;;;;11.79;70.94;99107.56;5014425;28;20054;-84
2021/05/23 02:38:22;;;;;;;12.65;8.02;;;;;;;11.80;70.99;99101.34;5005146;28;20527;-84
2021/05/23 02:40:48;;;;;;;14.35;8.45;;;;;;;11.79;71.00;99107.56;4994850;28;20046;-84
2021/05/23 02:43:18;;;;;;;13.65;8.02;;;;;;;11.76;70.86;99104.28;4995020;28;20381;-83
2021/05/23 02:45:45;;;;;;;12.73;8.10;;;;;;;11.77;70.84;99108.63;4992959;28;20054;-84
2021/05/23 02:48:12;;;;;;;12.30;7.88;;;;;;;11.75;70.80;99103.47;4994399;28;20053;-85
2021/05/23 02:50:45;;;;;;;16.77;8.35;;;;;;;11.72;70.77;99103.69;4992831;28;20046;-85
2021/05/23 02:53:12;;;;;;;13.10;7.85;;;;;;;11.72;70.92;99122.13;5009058;28;20056;-84
2021/05/23 02:55:42;;;;;;;13.50;8.35;;;;;;;11.70;70.91;99114.34;5011381;28;20514;-83
2021/05/23 02:58:11;;;;;;;14.63;8.85;;;;;;;11.71;70.97;99120.47;4994356;28;20065;-84
2021/05/23 03:00:38;;;;;;;12.73;7.82;;;;;;;11.70;71.08;99118.78;4994250;28;20054;-83
2021/05/23 03:03:06;;;;;;;13.25;8.25;;;;;;;11.70;71.06;99124.06;4994277;28;20077;-83
2021/05/23 03:05:33;;;;;;;13.57;7.82;;;;;;;11.71;71.18;99120.47;4993692;28;20058;-84
2021/05/23 03:08:00;;;;;;;10.70;7.65;;;;;;;11.71;71.10;99131.00;4993942;28;20050;-84
2021/05/23 03:10:52;;;;;;;16.27;8.60;;;;;;;11.69;71.02;99133.75;5000848;28;20049;-85
2021/05/23 03:13:19;;;;;;;14.07;8.13;;;;;;;11.71;71.08;99136.28;5013641;28;20061;-83
2021/05/23 03:15:46;;;;;;;14.13;7.90;;;;;;;11.70;71.05;99150.41;5012909;28;20068;-83
2021/05/23 03:18:12;;;;;;;13.45;8.20;;;;;;;11.69;71.17;99135.53;5013036;28;20518;-83
2021/05/23 03:20:41;;;;;;;14.98;8.13;;;;;;;11.67;71.25;99135.63;5012435;28;20080;-83
2021/05/23 03:23:08;;;;;;;13.85;8.70;;;;;;;11.68;71.29;99147.88;5013248;28;20049;-84
2021/05/23 03:25:35;;;;;;;12.70;8.38;;;;;;;11.67;71.20;99148.81;5013803;28;20056;-83
2021/05/23 03:28:02;;;;;;;13.27;8.20;;;;;;;11.68;71.21;99154.94;5011193;28;20046;-83
2021/05/23 03:30:35;;;;;;;13.32;9.10;;;;;;;11.65;71.13;99155.16;5012207;28;20423;-83
2021/05/23 03:33:04;;;;;;;14.38;8.05;;;;;;;11.67;71.21;99169.09;5012690;28;20046;-83
2021/05/23 03:35:31;;;;;;;14.82;8.98;;;;;;;11.66;71.38;99172.69;5014276;28;20141;-84
2021/05/23 03:37:58;;;;;;;14.80;8.43;;;;;;;11.66;71.52;99170.88;5014213;28;20054;-83
2021/05/23 03:40:25;;;;;;;13.93;8.10;;;;;;;11.67;71.39;99174.34;5013723;28;20050;-83
2021/05/23 03:42:52;;;;;;;13.60;7.97;;;;;;;11.66;71.74;99170.88;5011265;28;20064;-85
2021/05/23 03:45:22;;;;;;;13.93;7.82;;;;;;;11.68;71.61;99168.13;5012881;28;20057;-84
2021/05/23 03:47:49;;;;;;;14.27;8.73;;;;;;;11.71;71.68;99183.75;5013410;28;20053;-83
2021/05/23 03:50:19;;;;;;;16.60;8.02;;;;;;;11.69;71.57;99175.06;5012761;28;20053;-84
2021/05/23 03:52:48;;;;;;;12.63;7.82;;;;;;;11.71;71.60;99181.09;5010983;28;20049;-83
2021/05/23 03:55:15;;;;;;;13.60;8.35;;;;;;;11.72;71.61;99185.41;5012307;28;20061;-83
2021/05/23 03:57:41;;;;;;;13.07;8.65;;;;;;;11.71;71.56;99184.56;5012109;28;20053;-83
2021/05/23 04:00:10;;;;;;;18.48;9.40;;;;;;;11.72;71.46;99182.78;5010904;28;20542;-83
2021/05/23 04:02:36;;;;;;;13.32;8.23;;;;;;;11.72;71.59;99185.41;5011932;28;20137;-83
2021/05/23 04:05:04;;;;;;;14.70;8.50;;;;;;;11.72;71.59;99180.13;5010999;28;20057;-83
2021/05/23 04:07:31;;;;;;;13.15;8.57;;;;;;;11.71;71.64;99183.75;5012066;28;20100;-83
2021/05/23 04:09:58;;;;;;;14.57;7.75;;;;;;;11.72;71.57;99188.91;5012276;28;20084;-84
2021/05/23 04:12:29;;;;;;;20.35;8.90;;;;;;;11.73;71.53;99195.00;5012018;28;20502;-83
2021/05/23 04:14:56;;;;;;;15.90;8.35;;;;;;;11.73;71.63;99192.38;5011749;28;20519;-83
2021/05/23 04:17:23;;;;;;;17.08;8.63;;;;;;;11.73;71.78;99195.00;5009149;28;20259;-84
2021/05/23 04:19:49;;;;;;;16.75;8.25;;;;;;;11.74;71.72;99207.25;4992722;28;20047;-84
2021/05/23 04:22:16;;;;;;;15.77;8.82;;;;;;;11.74;71.75;99199.34;4991136;28;20065;-84
2021/05/23 04:24:43;;;;;;;13.65;8.02;;;;;;;11.75;71.64;99203.66;4991130;28;20051;-83
2021/05/23 04:27:09;;;;;;;14.23;7.80;;;;;;;11.76;71.70;99209.75;4992063;28;20054;-83
2021/05/23 04:29:36;;;;;;;14.02;8.25;;;;;;;11.78;71.81;99215.78;4990990;28;20556;-83
2021/05/23 04:32:05;;;;;;;13.45;8.20;;;;;;;11.78;71.89;99216.59;4993210;28;20057;-83
2021/05/23 04:34:34;;;;;;;15.88;8.18;;;;;;;11.79;71.76;99220.94;4992080;28;20062;-83
2021/05/23 04:37:01;;;;;;;17.00;8.38;;;;;;;11.81;71.66;99215.56;4992171;28;20062;-83
2021/05/23 04:39:27;;;;;;;14.88;7.80;;;;;;;11.81;71.68;99221.66;4992361;28;20057;-84
2021/05/23 04:41:54;;;;;;;14.10;7.78;;;;;;;11.82;71.61;99227.81;4992253;28;20065;-83
2021/05/23 04:44:40;;;;;;;13.63;7.22;;;;;;;11.84;71.74;99228.53;4991130;28;20109;-84
2021/05/23 04:47:07;;;;;;;13.57;7.95;;;;;;;11.85;71.78;99230.22;4993498;28;20073;-84
2021/05/23 04:49:38;;;;;;;13.52;7.97;;;;;;;11.85;71.72;99233.69;5000043;28;20046;-84
2021/05/23 04:52:07;;;;;;;12.18;7.30;;;;;;;11.88;71.61;99231.81;5011517;28;20057;-83
2021/05/23 04:54:36;;;;;;;14.48;7.65;;;;;;;11.89;71.61;99236.13;5011633;28;20056;-83
2021/05/23 04:57:04;;;;;;;16.83;7.22;;;;;;;11.90;71.55;99235.16;5013060;28;20061;-84
2021/05/23 04:59:31;;;;;;;11.90;6.95;;;;;;;11.91;71.44;99242.09;5015507;28;20049;-83
2021/05/23 05:01:57;;;;;;;18.35;7.78;;;;;;;11.90;71.73;99236.00;5014335;28;20050;-83
2021/05/23 05:04:25;;;;;;;15.00;7.35;;;;;;;11.91;71.67;99237.69;5015285;28;20518;-83
2021/05/23 05:06:51;;;;;;;18.13;7.82;;;;;;;11.93;71.59;99246.31;5013854;28;20061;-83
2021/05/23 05:09:18;;;;;;;15.10;7.63;;;;;;;11.94;71.75;99253.31;5015343;28;20050;-83
2021/05/23 05:11:44;;;;;;;15.18;7.07;;;;;;;11.96;71.80;99247.94;5015340;28;20525;-83
2021/05/23 05:14:12;;;;;;;16.48;7.47;;;;;;;11.98;71.81;99249.50;5015520;28;20058;-83
2021/05/23 05:16:40;;;;;;;13.57;7.25;;;;;;;11.99;71.66;99248.53;5015465;28;20056;-84
2021/05/23 05:19:08;;;;;;;17.05;7.10;;;;;;;12.02;71.70;99262.44;5017486;28;20056;-83
2021/05/23 05:21:34;;;;;;;19.77;7.85;;;;;;;12.03;71.65;99257.06;5012349;28;20069;-83
2021/05/23 05:24:02;;;;;;;12.77;6.25;;;;;;;12.06;71.68;99267.44;5013934;28;20053;-83
2021/05/23 05:26:28;;;;;;;14.13;6.43;;;;;;;12.07;71.82;99266.47;5015081;28;20073;-83
2021/05/23 05:28:55;;;;;;;14.23;6.60;;;;;;;12.10;71.78;99258.34;5015137;28;20046;-85
2021/05/23 05:31:21;;;;;;;12.60;6.75;;;;;;;12.14;71.61;99273.97;5015409;28;20054;-85
2021/05/23 05:33:51;;;;;;;11.15;6.70;;;;;;;12.16;71.52;99264.13;5015207;28;20089;-84
2021/05/23 05:36:17;;;;;;;12.90;6.88;;;;;;;12.19;71.40;99266.56;5015401;28;20077;-84
2021/05/23 05:38:44;;;;;;;18.90;7.72;;;;;;;12.20;71.50;99274.38;5015418;28;20053;-85
2021/05/23 05:41:11;;;;;;;16.08;7.60;;;;;;;12.23;71.73;99273.31;5013575;28;20060;-85
2021/05/23 05:43:37;;;;;;;17.73;7.55;;;;;;;12.26;71.36;99278.34;5002453;28;20054;-84
2021/05/23 05:46:04;;;;;;;16.70;8.00;;;;;;;12.28;71.47;99279.09;4995561;28;20058;-84
2021/05/23 05:48:30;;;;;;;14.32;7.25;;;;;;;12.30;71.10;99285.09;4995531;28;20236;-85
2021/05/23 05:50:57;;;;;;;12.23;7.45;;;;;;;12.31;71.02;99284.16;4993839;28;20105;-84
2021/05/23 05:53:24;;;;;;;15.02;8.07;;;;;;;12.32;70.97;99284.97;4997801;28;20061;-85
2021/05/23 05:55:50;;;;;;;15.15;7.90;;;;;;;12.31;70.80;99284.16;5015108;28;20053;-85
2021/05/23 05:58:17;;;;;;;20.15;7.85;;;;;;;12.32;70.96;99288.47;5014298;28;20049;-85
2021/05/23 06:00:44;;;;;;;17.88;7.97;;;;;;;12.32;70.90;99291.13;5014630;28;20054;-85
2021/05/23 06:03:10;;;;;;;16.08;7.30;;;;;;;12.33;71.05;99291.94;5014715;28;20089;-84
2021/05/23 06:05:37;;;;;;;12.75;7.38;;;;;;;12.36;71.35;99295.22;5014466;28;20096;-85
2021/05/23 06:08:04;;;;;;;15.65;7.63;;;;;;;12.38;71.25;99297.75;5014374;28;20060;-84
2021/05/23 06:10:30;;;;;;;17.10;7.13;;;;;;;12.45;71.34;99303.44;5011422;28;20046;-85
2021/05/23 06:12:58;;;;;;;15.05;7.53;;;;;;;12.49;71.34;99299.63;5014581;28;20065;-85
2021/05/23 06:15:25;;;;;;;15.60;7.72;;;;;;;12.54;71.29;99302.75;5014548;28;20053;-85
2021/05/23 06:17:51;;;;;;;11.73;7.32;;;;;;;12.59;71.17;99307.69;5014525;28;20053;-85
2021/05/23 06:20:18;;;;;;;11.00;7.53;;;;;;;12.63;71.21;99310.00;5014932;28;20054;-85
2021/05/23 06:22:45;;;;;;;13.55;7.20;;;;;;;12.69;71.04;99306.09;5014415;28;20053;-86
2021/05/23 06:25:12;;;;;;;12.57;6.85;;;;;;;12.73;70.86;99304.91;5014384;28;20076;-85
2021/05/23 06:27:38;;;;;;;12.45;7.10;;;;;;;12.79;70.92;99300.13;5000195;28;20061;-85
2021/05/23 06:30:06;;;;;;;12.20;7.05;;;;;;;12.85;70.81;99304.94;4994410;28;20050;-85
2021/05/23 06:32:33;;;;;;;18.60;7.97;;;;;;;12.89;70.85;99309.88;4993675;28;20046;-85
2021/05/23 06:35:00;;;;;;;14.63;8.80;;;;;;;12.94;70.40;99314.00;4994999;28;20057;-85
2021/05/23 06:37:26;;;;;;;12.88;7.82;;;;;;;12.97;70.34;99319.06;4993874;28;20116;-85
2021/05/23 06:39:53;;;;;;;11.98;8.20;;;;;;;12.99;69.88;99319.78;4995167;28;20125;-88
2021/05/23 06:42:20;;;;;;;17.52;9.70;;;;;;;12.98;69.50;99320.75;4994979;28;20058;-85
2021/05/23 06:44:47;;;;;;;14.25;9.52;;;;;;;12.98;69.71;99326.84;4994947;28;20061;-86
2021/05/23 06:47:14;;;;;;;13.00;8.82;;;;;;;12.98;69.52;99326.03;4993640;28;20384;-85
2021/05/23 06:49:41;;;;;;;14.85;10.07;;;;;;;12.98;70.19;99331.31;4994733;28;20046;-85
2021/05/23 06:52:08;;;;;;;14.02;9.52;;;;;;;13.01;70.15;99331.91;4994902;28;20070;-85
2021/05/23 06:54:35;;;;;;;16.55;8.55;;;;;;;13.07;70.13;99335.91;4994521;28;20050;-87
2021/05/23 06:57:02;;;;;;;13.52;8.45;;;;;;;13.12;69.99;99336.41;4993115;28;20496;-85
2021/05/23 06:59:28;;;;;;;13.40;8.32;;;;;;;13.18;69.87;99336.88;4994825;28;20098;-85
2021/05/23 07:01:55;;;;;;;14.20;8.45;;;;;;;13.23;69.44;99340.06;4994788;28;20061;-85
2021/05/23 07:04:23;;;;;;;15.95;8.63;;;;;;;13.26;69.98;99335.38;4993258;28;20046;-85
2021/05/23 07:06:49;;;;;;;14.70;9.45;;;;;;;13.32;70.05;99333.22;4994662;28;20061;-85
2021/05/23 07:09:16;;;;;;;13.52;8.23;;;;;;;13.39;70.37;99345.84;4994710;28;20061;-85
2021/05/23 07:11:43;;;;;;;12.55;8.48;;;;;;;13.48;70.49;99340.84;4994231;28;20152;-87
2021/05/23 07:14:10;;;;;;;14.10;8.95;;;;;;;13.57;70.26;99344.63;4992930;28;20050;-85
2021/05/23 07:16:36;;;;;;;14.38;8.88;;;;;;;13.66;70.44;99344.75;4994419;28;20058;-85
2021/05/23 07:19:03;;;;;;;14.23;8.93;;;;;;;13.77;70.07;99353.66;4992164;28;20046;-85
2021/05/23 07:21:30;;;;;;;11.63;8.57;;;;;;;13.86;69.84;99357.41;4993355;28;20129;-85
2021/05/23 07:23:57;;;;;;;11.48;8.13;;;;;;;13.91;68.96;99356.06;4993533;28;20054;-85
2021/05/23 07:26:23;;;;;;;15.25;8.48;;;;;;;13.96;68.58;99354.88;4993588;28;20054;-85
2021/05/23 07:28:51;;;;;;;11.60;7.88;;;;;;;13.96;68.10;99355.72;4993713;28;20054;-85
2021/05/23 07:31:17;;;;;;;9.65;7.00;;;;;;;13.94;68.23;99355.84;4992357;28;20503;-86
2021/05/23 07:33:44;;;;;;;10.50;7.78;;;;;;;13.93;68.09;99358.59;4992436;28;20046;-86
2021/05/23 07:36:12;;;;;;;10.52;6.97;;;;;;;13.91;68.00;99356.06;4993641;28;20255;-85
2021/05/23 07:38:40;;;;;;;16.90;7.90;;;;;;;13.90;68.47;99358.81;4993616;28;20090;-86
2021/05/23 07:41:07;;;;;;;12.13;8.02;;;;;;;13.89;68.19;99360.66;4993682;28;20086;-85
2021/05/23 07:43:34;;;;;;;12.25;8.38;;;;;;;13.90;68.63;99362.31;4993536;28;20515;-86
2021/05/23 07:46:01;;;;;;;12.52;8.35;;;;;;;13.93;68.58;99364.75;4993314;28;20057;-85
2021/05/23 07:48:27;;;;;;;15.70;8.15;;;;;;;13.97;68.93;99367.97;4993137;28;20061;-85
2021/05/23 07:50:54;;;;;;;11.48;8.38;;;;;;;14.02;68.94;99365.00;4992106;28;20050;-85
2021/05/23 07:53:21;;;;;;;11.48;8.65;;;;;;;14.05;68.77;99372.66;4991742;28;20058;-86
2021/05/23 07:55:47;;;;;;;12.60;9.55;;;;;;;14.09;68.57;99379.41;4992580;28;20051;-85
2021/05/23 07:58:14;;;;;;;13.55;9.70;;;;;;;14.11;68.30;99372.22;4992909;28;20054;-85
2021/05/23 08:00:41;;;;;;;15.10;10.07;;;;;;;14.11;68.14;99372.22;4992049;28;20046;-86
2021/05/23 08:03:07;;;;;;;10.95;9.18;;;;;;;14.10;67.98;99382.91;4992958;28;20046;-86
2021/05/23 08:05:34;;;;;;;13.98;10.02;;;;;;;14.11;68.68;99380.16;5001061;28;20053;-86
2021/05/23 08:08:01;;;;;;;12.23;9.25;;;;;;;14.14;69.03;99382.56;5011460;28;20054;-85
2021/05/23 08:10:28;;;;;;;13.07;9.10;;;;;;;14.22;69.64;99389.03;5012480;28;20054;-86
2021/05/23 08:12:54;;;;;;;10.68;9.07;;;;;;;14.28;68.93;99381.47;5012526;28;20050;-86
2021/05/23 08:15:21;;;;;;;10.48;9.23;;;;;;;14.37;68.51;99390.50;5011137;28;20427;-87
2021/05/23 08:17:50;;;;;;;14.55;8.82;;;;;;;14.41;68.37;99385.78;5012332;28;20492;-86
2021/05/23 08:20:17;;;;;;;12.27;9.95;;;;;;;14.45;68.06;99389.88;5012456;28;20054;-85
2021/05/23 08:22:43;;;;;;;12.50;10.25;;;;;;;14.45;67.33;99401.31;5011076;28;20073;-86
2021/05/23 08:25:12;;;;;;;13.13;9.88;;;;;;;14.43;67.18;99403.25;5012268;28;20061;-85
2021/05/23 08:27:39;;;;;;;10.68;9.30;;;;;;;14.38;67.02;99402.78;5012810;28;20046;-86
2021/05/23 08:30:08;;;;;;;12.80;10.45;;;;;;;14.29;66.62;99403.50;5012533;28;20060;-85
2021/05/23 08:32:36;;;;;;;14.70;11.52;;;;;;;14.17;66.93;99407.94;5012411;28;20073;-85
2021/05/23 08:35:05;;;;;;;13.05;9.93;;;;;;;14.04;67.14;99413.34;5012277;28;20583;-85
2021/05/23 08:37:32;;;;;;;12.18;9.52;;;;;;;13.93;67.51;99422.97;5012274;28;20518;-85
2021/05/23 08:39:59;;;;;;;11.02;9.10;;;;;;;13.85;67.67;99419.19;5012092;28;20456;-86
2021/05/23 08:42:26;;;;;;;10.10;8.80;;;;;;;13.74;67.48;99423.50;5012006;28;20053;-86
2021/05/23 08:44:54;;;;;;;9.57;7.80;;;;;;;13.64;68.09;99412.78;5010692;28;20137;-85
2021/05/23 08:47:21;;;;;;;9.43;7.40;;;;;;;13.57;68.50;99424.78;5010910;28;20415;-85
2021/05/23 08:49:50;;;;;;;8.25;7.15;;;;;;;13.50;68.47;99423.56;5009219;28;20120;-85
2021/05/23 08:52:20;;;;;;;8.90;7.70;;;;;;;13.46;68.59;99425.53;4995498;28;20531;-86
2021/05/23 08:54:48;;;;;;;7.88;6.95;;;;;;;13.44;68.84;99427.47;4992068;28;20061;-85
2021/05/23 08:57:23;;;;;;;8.05;7.10;;;;;;;13.37;68.47;99435.00;4991000;28;20057;-85
2021/05/23 08:59:50;;;;;;;8.02;6.90;;;;;;;13.37;69.12;99437.66;4992024;28;20050;-85
2021/05/23 09:02:17;;;;;;;7.32;6.07;;;;;;;13.35;69.29;99439.56;4990774;28;20062;-85
2021/05/23 09:04:51;;;;;;;6.88;6.18;;;;;;;13.33;69.04;99444.13;4992008;28;20054;-85
2021/05/23 09:07:19;;;;;;;6.82;6.13;;;;;;;13.35;69.63;99436.91;5011644;28;20065;-84
2021/05/23 09:09:47;;;;;;;7.70;6.68;;;;;;;13.37;69.27;99444.75;5011927;28;20056;-84
2021/05/23 09:12:17;;;;;;;6.93;6.22;;;;;;;13.38;69.20;99444.63;5010446;28;20061;-85
2021/05/23 09:14:46;;;;;;;7.65;6.22;;;;;;;13.40;69.05;99453.31;5011833;28;20057;-84
2021/05/23 09:17:24;;;;;;;7.32;6.18;;;;;;;13.42;69.20;99446.09;5011861;28;20057;-85
2021/05/23 09:19:53;;;;;;;6.75;6.05;;;;;;;13.52;70.09;99456.00;5011773;28;20411;-84
2021/05/23 09:22:24;;;;;;;6.35;5.70;;;;;;;13.58;69.94;99454.72;5009904;28;20042;-84
2021/05/23 09:24:55;;;;;;;6.38;5.70;;;;;;;13.64;69.62;99452.44;5011317;28;20061;-85
2021/05/23 09:27:24;;;;;;;7.20;6.15;;;;;;;13.72;69.81;99449.22;5011932;28;20058;-85
2021/05/23 09:30:05;;;;;;;10.45;6.68;;;;;;;13.79;68.80;99463.69;5011848;28;20100;-85
2021/05/23 09:32:37;;;;;;;9.80;6.20;;;;;;;13.89;69.15;99462.97;5010186;28;20064;-85
2021/05/23 09:35:06;;;;;;;9.20;5.90;;;;;;;13.98;69.58;99464.09;5012356;28;20053;-85
2021/05/23 09:37:34;;;;;;;10.82;6.55;;;;;;;14.04;69.48;99461.81;5011825;28;20056;-85
2021/05/23 09:40:02;;;;;;;9.85;7.30;;;;;;;14.11;69.33;99462.19;5011863;28;20074;-86
2021/05/23 09:42:44;;;;;;;10.95;6.40;;;;;;;14.15;68.55;99468.94;5011513;28;20396;-85
2021/05/23 09:45:11;;;;;;;9.38;6.95;;;;;;;14.25;69.14;99482.31;5015457;28;20427;-85
2021/05/23 09:47:58;;;;;;;9.60;6.63;;;;;;;14.28;68.38;99474.13;5015171;28;20050;-86
2021/05/23 09:50:35;;;;;;;9.77;5.85;;;;;;;14.37;68.44;99482.31;5013811;28;20049;-86
2021/05/23 09:53:03;;;;;;;14.07;6.45;;;;;;;14.44;68.87;99480.88;5014984;28;20057;-85
2021/05/23 09:55:30;;;;;;;10.40;6.32;;;;;;;14.50;68.57;99483.03;5003747;28;20120;-85
2021/05/23 09:57:57;;;;;;;11.80;6.50;;;;;;;14.51;68.32;99482.09;4995521;28;20064;-85
2021/05/23 10:00:23;;;;;;;10.27;6.13;;;;;;;14.52;67.52;99488.22;4994982;28;20075;-85
2021/05/23 10:02:58;;;;;;;9.45;5.65;;;;;;;14.48;66.72;99484.13;4993999;28;20449;-85
2021/05/23 10:05:26;;;;;;;11.65;4.38;;;;;;;14.45;67.14;99501.97;4995052;28;20113;-85
2021/05/23 10:07:53;;;;;;;8.48;4.13;;;;;;;14.40;67.36;99496.19;4993827;28;20137;-86
2021/05/23 10:10:20;;;;;;;9.98;4.45;;;;;;;14.36;67.48;99507.97;4995125;28;20053;-85
2021/05/23 10:12:47;;;;;;;12.32;4.13;;;;;;;14.33;67.24;99509.03;4996335;28;20439;-86
2021/05/23 10:15:14;;;;;;;8.02;4.03;;;;;;;14.30;66.83;99519.88;4995427;28;20078;-85
2021/05/23 10:17:56;;;;;;;6.20;3.40;;;;;;;14.28;67.15;99518.31;4994210;28;20050;-85
2021/05/23 10:20:27;;;;;;;11.90;4.05;;;;;;;14.24;66.60;99522.16;4993445;28;20117;-85
2021/05/23 10:22:56;;;;;;;9.23;4.05;;;;;;;14.21;66.88;99528.53;4994752;28;20141;-86
2021/05/23 10:25:24;;;;;;;9.98;3.53;;;;;;;14.17;66.55;99527.06;4994476;28;20057;-85
2021/05/23 10:27:52;;;;;;;14.20;3.50;;;;;;;14.14;66.53;99546.69;4994965;28;20050;-85
2021/05/23 10:30:19;;;;;;;12.07;4.13;;;;;;;14.14;66.73;99532.59;5012232;28;20050;-85
2021/05/23 10:32:46;;;;;;;8.23;3.55;;;;;;;14.17;67.36;99529.72;5012820;28;20054;-85
2021/05/23 10:35:15;;;;;;;9.00;3.42;;;;;;;14.20;67.15;99525.03;5014167;28;20065;-85
2021/05/23 10:37:44;;;;;;;8.30;3.50;;;;;;;14.29;67.89;99542.03;5014499;28;20050;-85
2021/05/23 10:40:28;;;;;;;8.95;3.58;;;;;;;14.37;66.40;99525.53;5013113;28;20404;-85
2021/05/23 10:42:58;;;;;;;4.78;3.40;;;;;;;14.53;67.50;99537.56;5012710;28;20104;-85
2021/05/23 10:45:34;;;;;;;11.63;3.40;;;;;;;14.64;67.47;99534.09;5012451;28;20057;-86
2021/05/23 10:48:15;;;;;;;9.35;3.38;;;;;;;14.71;65.74;99544.13;5014081;28;20129;-86
2021/05/23 10:50:47;;;;;;;8.40;3.20;;;;;;;14.81;66.71;99538.13;5013898;28;20046;-85
2021/05/23 10:53:14;;;;;;;7.72;3.28;;;;;;;14.88;66.35;99544.59;5013828;28;20061;-85
2021/05/23 10:55:55;;;;;;;8.55;3.25;;;;;;;14.89;64.65;99550.75;5012000;28;20107;-86
2021/05/23 10:58:24;;;;;;;10.32;3.38;;;;;;;14.96;65.45;99558.09;4993386;28;20101;-86
2021/05/23 11:00:56;;;;;;;6.95;2.55;;;;;;;15.04;65.80;99554.00;4993916;28;20053;-85
2021/05/23 11:03:26;;;;;;;4.80;2.83;;;;;;;15.22;67.87;99547.22;4993957;28;20527;-85
2021/05/23 11:06:07;;;;;;;5.47;2.90;;;;;;;15.49;66.04;99551.31;4992809;28;20419;-86
2021/05/23 11:08:36;;;;;;;8.10;2.90;;;;;;;15.86;67.42;99541.28;4994356;28;20054;-86
2021/05/23 11:11:04;;;;;;;6.32;2.10;;;;;;;16.17;65.90;99535.25;5003907;28;20061;-86
2021/05/23 11:13:35;;;;;;;7.32;2.97;;;;;;;16.38;64.16;99533.41;5012008;28;20046;-85
2021/05/23 11:16:17;;;;;;;4.45;2.00;;;;;;;16.49;61.78;99534.34;5013347;28;20546;-85
2021/05/23 11:18:45;;;;;;;8.40;2.22;;;;;;;16.58;61.58;99536.19;5013555;28;20053;-85
2021/05/23 11:21:14;;;;;;;4.78;1.85;;;;;;;16.58;61.22;99543.31;5011715;28;20037;-86
2021/05/23 11:23:50;;;;;;;4.90;1.73;;;;;;;16.51;59.21;99541.19;5013076;28;20061;-87
2021/05/23 11:26:19;;;;;;;6.75;2.25;;;;;;;16.46;60.10;99542.56;5012572;28;20104;-87
2021/05/23 11:28:52;;;;;;;8.15;1.92;;;;;;;16.35;59.28;99540.81;5011803;28;20049;-85
2021/05/23 11:31:30;;;;;;;6.57;2.30;;;;;;;16.26;58.21;99540.63;5012780;28;20053;-85
2021/05/23 11:33:58;;;;;;;3.53;1.90;;;;;;;16.32;62.79;99535.75;5013197;28;20050;-85